Time;durP1;ratioP1;P1;durP2;ratioP2;P2;SDS_P1;SDS_P2;PMS_P1;PMS_P2;Temp;Humidity;BMP_temperature;BMP_pressure;BME280_temperature;BME280_humidity;BME280_pressure;Samples;Min_cycle;Max_cycle;Signal;HPM_P1;HPM_P2
2024/03/27 00:00:47;;;;;;;;;;;;;;;;;;106598;1254;62117;-81
2024/03/27 00:03:33;;;;;;;;;;;;;;;;;;106623;1254;62023;-78
2024/03/27 00:06:00;;;;;;;;;;;;;;;;;;106631;1254;62070;-78
2024/03/27 00:08:26;;;;;;;;;;;;;;;;;;106578;1251;62232;-78
2024/03/27 00:10:53;;;;;;;;;;;;;;;;;;106572;1251;62198;-78
2024/03/27 00:13:19;;;;;;;;;;;;;;;;;;106601;1251;62079;-78
2024/03/27 00:15:45;;;;;;;;;;;;;;;;;;106542;1254;62158;-81
2024/03/27 00:18:11;;;;;;;;;;;;;;;;;;106580;1253;62150;-80
2024/03/27 00:20:38;;;;;;;;;;;;;;;;;;106576;1251;62136;-81
2024/03/27 00:23:04;;;;;;;;;;;;;;;;;;108739;1250;59888;-79
2024/03/27 00:25:30;;;;;;;;;;;;;;;;;;107141;1251;62083;-77
2024/03/27 00:27:56;;;;;;;;;;;;;;;;;;106580;1251;62054;-80
2024/03/27 00:30:22;;;;;;;;;;;;;;;;;;106578;1250;62238;-78
2024/03/27 00:32:48;;;;;;;;;;;;;;;;;;106594;1250;61987;-77
2024/03/27 00:35:15;;;;;;;;;;;;;;;;;;106671;1251;62008;-80
2024/03/27 00:37:41;;;;;;;;;;;;;;;;;;106715;1249;62148;-80
2024/03/27 00:40:08;;;;;;;;;;;;;;;;;;106773;1251;63778;-80
2024/03/27 00:42:34;;;;;;;;;;;;;;;;;;106951;1250;62016;-78
2024/03/27 00:45:01;;;;;;;;;;;;;;;;;;108079;1250;62036;-79
2024/03/27 00:47:27;;;;;;;;;;;;;;;;;;109269;1249;61756;-80
2024/03/27 00:49:53;;;;;;;;;;;;;;;;;;108014;1253;60684;-78
2024/03/27 00:52:19;;;;;;;;;;;;;;;;;;107587;1251;61992;-77
2024/03/27 00:54:45;;;;;;;;;;;;;;;;;;106933;1253;62130;-78
2024/03/27 00:57:11;;;;;;;;;;;;;;;;;;106572;1251;61997;-78
2024/03/27 00:59:38;;;;;;;;;;;;;;;;;;106609;1251;62127;-78
2024/03/27 01:02:04;;;;;;;;;;;;;;;;;;106625;1251;62130;-80
2024/03/27 01:04:30;;;;;;;;;;;;;;;;;;106559;1251;61932;-82
2024/03/27 01:06:56;;;;;;;;;;;;;;;;;;107219;1253;62031;-80
2024/03/27 01:09:22;;;;;;;;;;;;;;;;;;107250;1251;62165;-78
2024/03/27 01:11:48;;;;;;;;;;;;;;;;;;106654;1254;62037;-80
2024/03/27 01:14:15;;;;;;;;;;;;;;;;;;106639;1250;62162;-80
2024/03/27 01:16:41;;;;;;;;;;;;;;;;;;106660;1251;62068;-77
2024/03/27 01:19:07;;;;;;;;;;;;;;;;;;106576;1251;62067;-78
2024/03/27 01:21:33;;;;;;;;;;;;;;;;;;106546;1253;62029;-81
2024/03/27 01:23:59;;;;;;;;;;;;;;;;;;106624;1251;62159;-80
2024/03/27 01:26:25;;;;;;;;;;;;;;;;;;106603;1250;62077;-77
2024/03/27 01:28:51;;;;;;;;;;;;;;;;;;106627;1250;62134;-80
2024/03/27 01:31:18;;;;;;;;;;;;;;;;;;106549;1254;62070;-80
2024/03/27 01:33:44;;;;;;;;;;;;;;;;;;106554;1254;62022;-80
2024/03/27 01:36:10;;;;;;;;;;;;;;;;;;106617;1253;62074;-80
2024/03/27 01:38:36;;;;;;;;;;;;;;;;;;106587;1251;60518;-80
2024/03/27 01:41:02;;;;;;;;;;;;;;;;;;106514;1253;62166;-81
2024/03/27 01:43:28;;;;;;;;;;;;;;;;;;106546;1254;62063;-78
2024/03/27 01:45:55;;;;;;;;;;;;;;;;;;106617;1251;62012;-78
2024/03/27 01:48:21;;;;;;;;;;;;;;;;;;106586;1253;62156;-78
2024/03/27 01:50:48;;;;;;;;;;;;;;;;;;106548;1250;62186;-80
2024/03/27 01:53:14;;;;;;;;;;;;;;;;;;106628;1249;62192;-78
2024/03/27 01:55:41;;;;;;;;;;;;;;;;;;106580;1253;62068;-78
2024/03/27 01:58:07;;;;;;;;;;;;;;;;;;106590;1254;64087;-78
2024/03/27 02:00:34;;;;;;;;;;;;;;;;;;106605;1253;62142;-80
2024/03/27 02:03:00;;;;;;;;;;;;;;;;;;106554;1250;62034;-78
2024/03/27 02:05:26;;;;;;;;;;;;;;;;;;106531;1250;62160;-80
2024/03/27 02:07:52;;;;;;;;;;;;;;;;;;109555;1249;60046;-80
2024/03/27 02:10:18;;;;;;;;;;;;;;;;;;109674;1249;59675;-78
2024/03/27 02:12:45;;;;;;;;;;;;;;;;;;109716;1250;59977;-78
2024/03/27 02:15:11;;;;;;;;;;;;;;;;;;109664;1249;59645;-78
2024/03/27 02:17:37;;;;;;;;;;;;;;;;;;109690;1249;59782;-80
2024/03/27 02:20:06;;;;;;;;;;;;;;;;;;107116;1253;62126;-79
2024/03/27 02:22:33;;;;;;;;;;;;;;;;;;106601;1250;62157;-80
2024/03/27 02:24:59;;;;;;;;;;;;;;;;;;106581;1251;62128;-80
2024/03/27 02:27:26;;;;;;;;;;;;;;;;;;106592;1250;62038;-81
2024/03/27 02:29:52;;;;;;;;;;;;;;;;;;106616;1250;62136;-78
2024/03/27 02:32:18;;;;;;;;;;;;;;;;;;106633;1254;62160;-77
2024/03/27 02:34:44;;;;;;;;;;;;;;;;;;106640;1253;62163;-80
2024/03/27 02:37:10;;;;;;;;;;;;;;;;;;106766;1250;62070;-80
2024/03/27 02:39:36;;;;;;;;;;;;;;;;;;106861;1251;62089;-80
2024/03/27 02:42:03;;;;;;;;;;;;;;;;;;106789;1254;62295;-78
2024/03/27 02:44:29;;;;;;;;;;;;;;;;;;106785;1253;62041;-80
2024/03/27 02:46:55;;;;;;;;;;;;;;;;;;107414;1251;62149;-80
2024/03/27 02:49:21;;;;;;;;;;;;;;;;;;109631;1249;59705;-78
2024/03/27 02:51:47;;;;;;;;;;;;;;;;;;109708;1249;59658;-81
2024/03/27 02:54:14;;;;;;;;;;;;;;;;;;109646;1249;60122;-78
2024/03/27 02:56:40;;;;;;;;;;;;;;;;;;106795;1249;62048;-78
2024/03/27 02:59:06;;;;;;;;;;;;;;;;;;106957;1250;62214;-80
2024/03/27 03:01:32;;;;;;;;;;;;;;;;;;109650;1249;59920;-80
2024/03/27 03:03:58;;;;;;;;;;;;;;;;;;109657;1249;59653;-81
2024/03/27 03:06:24;;;;;;;;;;;;;;;;;;109167;1249;60141;-78
2024/03/27 03:08:51;;;;;;;;;;;;;;;;;;106477;1250;62030;-78
2024/03/27 03:11:18;;;;;;;;;;;;;;;;;;106520;1249;62127;-78
2024/03/27 03:13:44;;;;;;;;;;;;;;;;;;106599;1250;62144;-80
2024/03/27 03:16:10;;;;;;;;;;;;;;;;;;106607;1251;61973;-80
2024/03/27 03:18:37;;;;;;;;;;;;;;;;;;106568;1253;62068;-80
2024/03/27 03:21:03;;;;;;;;;;;;;;;;;;106609;1250;62143;-78
2024/03/27 03:23:30;;;;;;;;;;;;;;;;;;106394;1254;63119;-80
2024/03/27 03:25:56;;;;;;;;;;;;;;;;;;106587;1250;61951;-77
2024/03/27 03:28:22;;;;;;;;;;;;;;;;;;106604;1254;62074;-80
2024/03/27 03:30:48;;;;;;;;;;;;;;;;;;106604;1250;62153;-78
2024/03/27 03:33:14;;;;;;;;;;;;;;;;;;106597;1250;62147;-80
2024/03/27 03:35:40;;;;;;;;;;;;;;;;;;106557;1254;62126;-79
2024/03/27 03:38:06;;;;;;;;;;;;;;;;;;106545;1250;62032;-77
2024/03/27 03:40:32;;;;;;;;;;;;;;;;;;106575;1250;62166;-78
2024/03/27 03:42:59;;;;;;;;;;;;;;;;;;106546;1250;62074;-78
2024/03/27 03:45:25;;;;;;;;;;;;;;;;;;106401;1250;62161;-80
2024/03/27 03:47:51;;;;;;;;;;;;;;;;;;106971;1250;62154;-80
2024/03/27 03:50:17;;;;;;;;;;;;;;;;;;107137;1249;61968;-80
2024/03/27 03:52:43;;;;;;;;;;;;;;;;;;107175;1250;62149;-79
2024/03/27 03:55:09;;;;;;;;;;;;;;;;;;107192;1249;62146;-82
2024/03/27 03:57:35;;;;;;;;;;;;;;;;;;107180;1249;62157;-79
2024/03/27 04:00:02;;;;;;;;;;;;;;;;;;107193;1253;62615;-80
2024/03/27 04:02:28;;;;;;;;;;;;;;;;;;107126;1250;61942;-79
2024/03/27 04:04:55;;;;;;;;;;;;;;;;;;107158;1251;62086;-80
2024/03/27 04:07:21;;;;;;;;;;;;;;;;;;107141;1250;61979;-82
2024/03/27 04:09:47;;;;;;;;;;;;;;;;;;107150;1251;62122;-82
2024/03/27 04:12:13;;;;;;;;;;;;;;;;;;107156;1250;62763;-80
2024/03/27 04:14:39;;;;;;;;;;;;;;;;;;107208;1254;62164;-80
2024/03/27 04:17:06;;;;;;;;;;;;;;;;;;107251;1250;60592;-80
2024/03/27 04:19:32;;;;;;;;;;;;;;;;;;107220;1250;62067;-82
2024/03/27 04:21:58;;;;;;;;;;;;;;;;;;107241;1250;62032;-78
2024/03/27 04:24:24;;;;;;;;;;;;;;;;;;107115;1251;62185;-77
2024/03/27 04:26:50;;;;;;;;;;;;;;;;;;106361;1251;62156;-79
2024/03/27 04:29:17;;;;;;;;;;;;;;;;;;106903;1254;62042;-80
2024/03/27 04:31:43;;;;;;;;;;;;;;;;;;106887;1253;63309;-79
2024/03/27 04:34:10;;;;;;;;;;;;;;;;;;106844;1253;62123;-80
2024/03/27 04:36:36;;;;;;;;;;;;;;;;;;106858;1250;62019;-80
2024/03/27 04:39:03;;;;;;;;;;;;;;;;;;106869;1250;62177;-80
2024/03/27 04:41:29;;;;;;;;;;;;;;;;;;106843;1249;62060;-82
2024/03/27 04:43:55;;;;;;;;;;;;;;;;;;106797;1250;62016;-80
2024/03/27 04:46:22;;;;;;;;;;;;;;;;;;106883;1253;62250;-80
2024/03/27 04:48:48;;;;;;;;;;;;;;;;;;106850;1249;62327;-80
2024/03/27 04:51:14;;;;;;;;;;;;;;;;;;106944;1250;62081;-82
2024/03/27 04:53:40;;;;;;;;;;;;;;;;;;106965;1251;62082;-82
2024/03/27 04:56:06;;;;;;;;;;;;;;;;;;106939;1249;62157;-80
2024/03/27 04:58:32;;;;;;;;;;;;;;;;;;106921;1253;62260;-82
2024/03/27 05:00:58;;;;;;;;;;;;;;;;;;106945;1250;63249;-80
2024/03/27 05:03:25;;;;;;;;;;;;;;;;;;106865;1249;62167;-80
2024/03/27 05:05:51;;;;;;;;;;;;;;;;;;106904;1250;62105;-80
2024/03/27 05:08:17;;;;;;;;;;;;;;;;;;106838;1251;62069;-82
2024/03/27 05:10:43;;;;;;;;;;;;;;;;;;106850;1251;62132;-82
2024/03/27 05:13:09;;;;;;;;;;;;;;;;;;106923;1251;62147;-80
2024/03/27 05:15:35;;;;;;;;;;;;;;;;;;106862;1250;62051;-82
2024/03/27 05:18:02;;;;;;;;;;;;;;;;;;106906;1249;62042;-80
2024/03/27 05:20:28;;;;;;;;;;;;;;;;;;106766;1254;62189;-81
2024/03/27 05:22:54;;;;;;;;;;;;;;;;;;106832;1250;62130;-80
2024/03/27 05:25:20;;;;;;;;;;;;;;;;;;106925;1250;62120;-82
2024/03/27 05:27:46;;;;;;;;;;;;;;;;;;106899;1251;62106;-82
2024/03/27 05:30:12;;;;;;;;;;;;;;;;;;106941;1249;62157;-82
2024/03/27 05:32:38;;;;;;;;;;;;;;;;;;106948;1251;62151;-80
2024/03/27 05:35:05;;;;;;;;;;;;;;;;;;106921;1253;59960;-82
2024/03/27 05:37:31;;;;;;;;;;;;;;;;;;106851;1250;62023;-80
2024/03/27 05:39:57;;;;;;;;;;;;;;;;;;106869;1250;62793;-83
2024/03/27 05:42:23;;;;;;;;;;;;;;;;;;106894;1251;62077;-80
2024/03/27 05:44:50;;;;;;;;;;;;;;;;;;106902;1250;62077;-83
2024/03/27 05:47:16;;;;;;;;;;;;;;;;;;106899;1250;62118;-82
2024/03/27 05:49:43;;;;;;;;;;;;;;;;;;107376;1250;62151;-80
2024/03/27 05:52:09;;;;;;;;;;;;;;;;;;107156;1251;62041;-81
2024/03/27 05:54:35;;;;;;;;;;;;;;;;;;106995;1251;63144;-78
2024/03/27 05:57:01;;;;;;;;;;;;;;;;;;106610;1250;62037;-78
2024/03/27 05:59:27;;;;;;;;;;;;;;;;;;106588;1250;62092;-80
2024/03/27 06:01:53;;;;;;;;;;;;;;;;;;107143;1249;62066;-81
2024/03/27 06:04:20;;;;;;;;;;;;;;;;;;107162;1251;62060;-81
2024/03/27 06:06:46;;;;;;;;;;;;;;;;;;107274;1249;62080;-78
2024/03/27 06:09:12;;;;;;;;;;;;;;;;;;106695;1250;62150;-79
2024/03/27 06:11:38;;;;;;;;;;;;;;;;;;107164;1251;198896;-82
2024/03/27 06:14:05;;;;;;;;;;;;;;;;;;107316;1250;62235;-82
2024/03/27 06:16:31;;;;;;;;;;;;;;;;;;107099;1249;62058;-79
2024/03/27 06:18:57;;;;;;;;;;;;;;;;;;106639;1254;62148;-81
2024/03/27 06:21:23;;;;;;;;;;;;;;;;;;106594;1251;62157;-80
2024/03/27 06:23:50;;;;;;;;;;;;;;;;;;106957;1251;62243;-78
2024/03/27 06:26:16;;;;;;;;;;;;;;;;;;106788;1251;62158;-78
2024/03/27 06:28:42;;;;;;;;;;;;;;;;;;106927;1254;62110;-81
2024/03/27 06:31:08;;;;;;;;;;;;;;;;;;106547;1250;62202;-81
2024/03/27 06:33:34;;;;;;;;;;;;;;;;;;106526;1250;60308;-80
2024/03/27 06:36:01;;;;;;;;;;;;;;;;;;106478;1250;62172;-78
2024/03/27 06:38:27;;;;;;;;;;;;;;;;;;106507;1250;62141;-78
2024/03/27 06:40:53;;;;;;;;;;;;;;;;;;106622;1254;62072;-78
2024/03/27 06:43:22;;;;;;;;;;;;;;;;;;106532;1254;62132;-79
2024/03/27 06:45:49;;;;;;;;;;;;;;;;;;106464;1250;62198;-78
2024/03/27 06:48:21;;;;;;;;;;;;;;;;;;106616;1248;62148;-78
2024/03/27 06:50:47;;;;;;;;;;;;;;;;;;106660;1248;62040;-79
2024/03/27 06:53:13;;;;;;;;;;;;;;;;;;106918;1250;62236;-79
2024/03/27 06:55:39;;;;;;;;;;;;;;;;;;107232;1250;62152;-79
2024/03/27 06:58:05;;;;;;;;;;;;;;;;;;107329;1254;62033;-82
2024/03/27 07:00:31;;;;;;;;;;;;;;;;;;107371;1249;59988;-82
2024/03/27 07:02:58;;;;;;;;;;;;;;;;;;107559;1250;62178;-79
2024/03/27 07:05:24;;;;;;;;;;;;;;;;;;107558;1250;61952;-82
2024/03/27 07:07:50;;;;;;;;;;;;;;;;;;107233;1254;62711;-84
2024/03/27 07:10:16;;;;;;;;;;;;;;;;;;107166;1253;62066;-82
2024/03/27 07:12:42;;;;;;;;;;;;;;;;;;107096;1250;61993;-77
2024/03/27 07:15:08;;;;;;;;;;;;;;;;;;106549;1253;62028;-80
2024/03/27 07:17:35;;;;;;;;;;;;;;;;;;107306;1250;62093;-80
2024/03/27 07:20:01;;;;;;;;;;;;;;;;;;107229;1254;60320;-80
2024/03/27 07:22:27;;;;;;;;;;;;;;;;;;107217;1251;62103;-78
2024/03/27 07:24:53;;;;;;;;;;;;;;;;;;106600;1250;62100;-78
2024/03/27 07:27:19;;;;;;;;;;;;;;;;;;106604;1250;62003;-81
2024/03/27 07:29:45;;;;;;;;;;;;;;;;;;107433;1254;60295;-79
2024/03/27 07:32:12;;;;;;;;;;;;;;;;;;107637;1250;60024;-79
2024/03/27 07:34:38;;;;;;;;;;;;;;;;;;107729;1250;62147;-79
2024/03/27 07:37:04;;;;;;;;;;;;;;;;;;107623;1248;62038;-81
2024/03/27 07:39:30;;;;;;;;;;;;;;;;;;107646;1249;60082;-79
2024/03/27 07:41:56;;;;;;;;;;;;;;;;;;107553;1250;62146;-79
2024/03/27 07:44:22;;;;;;;;;;;;;;;;;;107565;1248;63221;-81
2024/03/27 07:46:48;;;;;;;;;;;;;;;;;;107568;1250;62034;-81
2024/03/27 07:49:15;;;;;;;;;;;;;;;;;;107714;1249;62070;-79
2024/03/27 07:51:41;;;;;;;;;;;;;;;;;;107734;1250;60049;-80
2024/03/27 07:54:07;;;;;;;;;;;;;;;;;;107731;1250;62148;-81
2024/03/27 07:56:33;;;;;;;;;;;;;;;;;;107488;1248;62057;-79
2024/03/27 07:58:59;;;;;;;;;;;;;;;;;;107424;1250;62068;-79
2024/03/27 08:01:25;;;;;;;;;;;;;;;;;;107523;1253;62129;-80
2024/03/27 08:03:52;;;;;;;;;;;;;;;;;;107598;1253;62411;-80
2024/03/27 08:06:18;;;;;;;;;;;;;;;;;;107452;1250;62028;-81
2024/03/27 08:08:45;;;;;;;;;;;;;;;;;;107502;1254;64206;-79
2024/03/27 08:11:11;;;;;;;;;;;;;;;;;;107494;1250;62006;-80
2024/03/27 08:13:38;;;;;;;;;;;;;;;;;;107392;1251;62125;-83
2024/03/27 08:16:05;;;;;;;;;;;;;;;;;;109658;1250;60057;-80
2024/03/27 08:18:31;;;;;;;;;;;;;;;;;;109630;1250;59889;-82
2024/03/27 08:20:57;;;;;;;;;;;;;;;;;;109697;1251;59633;-80
2024/03/27 08:23:24;;;;;;;;;;;;;;;;;;109613;1249;59846;-82
2024/03/27 08:25:50;;;;;;;;;;;;;;;;;;109615;1250;59855;-80
2024/03/27 08:28:16;;;;;;;;;;;;;;;;;;109685;1248;59922;-82
2024/03/27 08:30:42;;;;;;;;;;;;;;;;;;109676;1248;59760;-82
2024/03/27 08:33:08;;;;;;;;;;;;;;;;;;109703;1248;59903;-80
2024/03/27 08:35:35;;;;;;;;;;;;;;;;;;109616;1250;59758;-80
2024/03/27 08:38:01;;;;;;;;;;;;;;;;;;109322;1249;59938;-83
2024/03/27 08:40:28;;;;;;;;;;;;;;;;;;107440;1250;62145;-82
2024/03/27 08:42:54;;;;;;;;;;;;;;;;;;107275;1250;62138;-81
2024/03/27 08:45:20;;;;;;;;;;;;;;;;;;107455;1254;62080;-80
2024/03/27 08:47:46;;;;;;;;;;;;;;;;;;107286;1250;62144;-82
2024/03/27 08:50:14;;;;;;;;;;;;;;;;;;107319;1250;62847;-80
2024/03/27 08:52:40;;;;;;;;;;;;;;;;;;107356;1253;63086;-82
2024/03/27 08:55:06;;;;;;;;;;;;;;;;;;107439;1253;62076;-81
2024/03/27 08:57:32;;;;;;;;;;;;;;;;;;107462;1250;62072;-80
2024/03/27 08:59:59;;;;;;;;;;;;;;;;;;107339;1249;61867;-82
2024/03/27 09:02:25;;;;;;;;;;;;;;;;;;107384;1254;62146;-80
2024/03/27 09:04:51;;;;;;;;;;;;;;;;;;107442;1250;62124;-82
2024/03/27 09:07:17;;;;;;;;;;;;;;;;;;107427;1250;62047;-80
2024/03/27 09:09:44;;;;;;;;;;;;;;;;;;107314;1250;62029;-80
2024/03/27 09:12:10;;;;;;;;;;;;;;;;;;107347;1256;61930;-79
2024/03/27 09:14:36;;;;;;;;;;;;;;;;;;107332;1250;62081;-82
2024/03/27 09:17:03;;;;;;;;;;;;;;;;;;107434;1254;61955;-80
2024/03/27 09:19:29;;;;;;;;;;;;;;;;;;107850;1250;61472;-82
2024/03/27 09:21:57;;;;;;;;;;;;;;;;;;107499;1249;63193;-82
2024/03/27 09:24:23;;;;;;;;;;;;;;;;;;107326;1250;63171;-80
2024/03/27 09:26:50;;;;;;;;;;;;;;;;;;107393;1250;62078;-82
2024/03/27 09:29:17;;;;;;;;;;;;;;;;;;107384;1250;62067;-80
2024/03/27 09:31:43;;;;;;;;;;;;;;;;;;107489;1250;62138;-79
2024/03/27 09:34:09;;;;;;;;;;;;;;;;;;107490;1250;62048;-79
2024/03/27 09:36:35;;;;;;;;;;;;;;;;;;107431;1251;62065;-82
2024/03/27 09:39:02;;;;;;;;;;;;;;;;;;107371;1250;62009;-81
2024/03/27 09:41:29;;;;;;;;;;;;;;;;;;107432;1250;62081;-80
2024/03/27 09:43:55;;;;;;;;;;;;;;;;;;107442;1252;62118;-79
2024/03/27 09:46:21;;;;;;;;;;;;;;;;;;107443;1250;61927;-79
2024/03/27 09:48:47;;;;;;;;;;;;;;;;;;107512;1248;62633;-81
2024/03/27 09:51:13;;;;;;;;;;;;;;;;;;107390;1248;62144;-80
2024/03/27 09:53:43;;;;;;;;;;;;;;;;;;107500;1250;62156;-81
2024/03/27 09:56:09;;;;;;;;;;;;;;;;;;107466;1248;62167;-79
2024/03/27 09:58:35;;;;;;;;;;;;;;;;;;107612;1252;62176;-79
2024/03/27 10:01:01;;;;;;;;;;;;;;;;;;107427;1252;62048;-79
2024/03/27 10:03:28;;;;;;;;;;;;;;;;;;107471;1249;61990;-79
2024/03/27 10:05:54;;;;;;;;;;;;;;;;;;107474;1250;63089;-81
2024/03/27 10:08:20;;;;;;;;;;;;;;;;;;107645;1254;62062;-79
2024/03/27 10:10:46;;;;;;;;;;;;;;;;;;107497;1248;62005;-79
2024/03/27 10:13:13;;;;;;;;;;;;;;;;;;107459;1254;61971;-80
2024/03/27 10:15:40;;;;;;;;;;;;;;;;;;107492;1250;62080;-82
2024/03/27 10:18:06;;;;;;;;;;;;;;;;;;107484;1251;60067;-79
2024/03/27 10:20:32;;;;;;;;;;;;;;;;;;107385;1250;62032;-83
2024/03/27 10:22:58;;;;;;;;;;;;;;;;;;107544;1253;62667;-79
2024/03/27 10:25:24;;;;;;;;;;;;;;;;;;107397;1250;62012;-82
2024/03/27 10:27:51;;;;;;;;;;;;;;;;;;107348;1249;62141;-82
2024/03/27 10:30:18;;;;;;;;;;;;;;;;;;107447;1254;62018;-79
2024/03/27 10:32:44;;;;;;;;;;;;;;;;;;107477;1250;62117;-81
2024/03/27 10:35:11;;;;;;;;;;;;;;;;;;107508;1248;63024;-81
2024/03/27 10:37:38;;;;;;;;;;;;;;;;;;107429;1250;61917;-81
2024/03/27 10:40:04;;;;;;;;;;;;;;;;;;107697;1250;62016;-79
2024/03/27 10:42:30;;;;;;;;;;;;;;;;;;107576;1250;62120;-79
2024/03/27 10:44:56;;;;;;;;;;;;;;;;;;107522;1253;61962;-79
2024/03/27 10:47:22;;;;;;;;;;;;;;;;;;107744;1253;62115;-81
2024/03/27 10:49:48;;;;;;;;;;;;;;;;;;107634;1254;62158;-79
2024/03/27 10:52:14;;;;;;;;;;;;;;;;;;107618;1251;62126;-80
2024/03/27 10:54:41;;;;;;;;;;;;;;;;;;107583;1255;60370;-79
2024/03/27 10:57:07;;;;;;;;;;;;;;;;;;107723;1253;62075;-79
2024/03/27 10:59:33;;;;;;;;;;;;;;;;;;107627;1250;62124;-81
2024/03/27 11:01:59;;;;;;;;;;;;;;;;;;107410;1250;62143;-81
2024/03/27 11:04:25;;;;;;;;;;;;;;;;;;106725;1250;62149;-81
2024/03/27 11:06:52;;;;;;;;;;;;;;;;;;107323;1250;60228;-81
2024/03/27 11:09:18;;;;;;;;;;;;;;;;;;107435;1249;62146;-79
2024/03/27 11:11:44;;;;;;;;;;;;;;;;;;107341;1250;62078;-79
2024/03/27 11:14:10;;;;;;;;;;;;;;;;;;107398;1252;62131;-81
2024/03/27 11:16:37;;;;;;;;;;;;;;;;;;107337;1250;61949;-81
2024/03/27 11:19:03;;;;;;;;;;;;;;;;;;107406;1253;62018;-81
2024/03/27 11:21:29;;;;;;;;;;;;;;;;;;107395;1250;62051;-79
2024/03/27 11:23:55;;;;;;;;;;;;;;;;;;107384;1250;62092;-79
2024/03/27 11:26:21;;;;;;;;;;;;;;;;;;107334;1251;61913;-82
2024/03/27 11:28:47;;;;;;;;;;;;;;;;;;107512;1248;62170;-79
2024/03/27 11:31:14;;;;;;;;;;;;;;;;;;108773;1250;62095;-79
2024/03/27 11:33:40;;;;;;;;;;;;;;;;;;109659;1250;59684;-81
2024/03/27 11:36:06;;;;;;;;;;;;;;;;;;109663;1248;59671;-79
2024/03/27 11:38:32;;;;;;;;;;;;;;;;;;109685;1248;59907;-81
2024/03/27 11:40:58;;;;;;;;;;;;;;;;;;109703;1253;59969;-82
2024/03/27 11:43:24;;;;;;;;;;;;;;;;;;108764;1252;62076;-81
2024/03/27 11:45:50;;;;;;;;;;;;;;;;;;107443;1253;62131;-79
2024/03/27 11:48:18;;;;;;;;;;;;;;;;;;107401;1248;62150;-81
2024/03/27 11:50:44;;;;;;;;;;;;;;;;;;107468;1252;62159;-81
2024/03/27 11:53:10;;;;;;;;;;;;;;;;;;107395;1248;62082;-81
2024/03/27 11:55:36;;;;;;;;;;;;;;;;;;107419;1251;62489;-80
2024/03/27 11:58:02;;;;;;;;;;;;;;;;;;107391;1250;62166;-80
2024/03/27 12:00:29;;;;;;;;;;;;;;;;;;107500;1249;62069;-81
2024/03/27 12:02:55;;;;;;;;;;;;;;;;;;107536;1251;62706;-81
2024/03/27 12:05:21;;;;;;;;;;;;;;;;;;107469;1253;61996;-81
2024/03/27 12:07:47;;;;;;;;;;;;;;;;;;107295;1251;62064;-80
2024/03/27 12:10:15;;;;;;;;;;;;;;;;;;107398;1253;62028;-78
2024/03/27 12:12:41;;;;;;;;;;;;;;;;;;106680;1250;62019;-81
2024/03/27 12:15:07;;;;;;;;;;;;;;;;;;107479;1249;62029;-80
2024/03/27 12:17:33;;;;;;;;;;;;;;;;;;107281;1250;60068;-79
2024/03/27 12:19:59;;;;;;;;;;;;;;;;;;107352;1250;62123;-79
2024/03/27 12:22:25;;;;;;;;;;;;;;;;;;107386;1248;62037;-79
2024/03/27 12:24:52;;;;;;;;;;;;;;;;;;106711;1254;62214;-80
2024/03/27 12:27:18;;;;;;;;;;;;;;;;;;107317;1250;62024;-78
2024/03/27 12:29:44;;;;;;;;;;;;;;;;;;107399;1248;60546;-78
2024/03/27 12:32:10;;;;;;;;;;;;;;;;;;107408;1248;62474;-79
2024/03/27 12:34:36;;;;;;;;;;;;;;;;;;106659;1251;62291;-79
2024/03/27 12:37:03;;;;;;;;;;;;;;;;;;106742;1250;62120;-81
2024/03/27 12:39:29;;;;;;;;;;;;;;;;;;106665;1250;62055;-78
2024/03/27 12:41:56;;;;;;;;;;;;;;;;;;106697;1254;62149;-81
2024/03/27 12:44:23;;;;;;;;;;;;;;;;;;107396;1251;62015;-80
2024/03/27 12:46:49;;;;;;;;;;;;;;;;;;107373;1250;63097;-78
2024/03/27 12:49:15;;;;;;;;;;;;;;;;;;106706;1250;62076;-80
2024/03/27 12:51:41;;;;;;;;;;;;;;;;;;107481;1250;62139;-78
2024/03/27 12:54:07;;;;;;;;;;;;;;;;;;106729;1253;62159;-80
2024/03/27 12:56:33;;;;;;;;;;;;;;;;;;106695;1250;62262;-81
2024/03/27 12:59:00;;;;;;;;;;;;;;;;;;107327;1249;62705;-80
2024/03/27 13:01:26;;;;;;;;;;;;;;;;;;107388;1251;62148;-81
2024/03/27 13:03:52;;;;;;;;;;;;;;;;;;108187;1250;62115;-79
2024/03/27 13:06:19;;;;;;;;;;;;;;;;;;107342;1253;62163;-81
2024/03/27 13:08:45;;;;;;;;;;;;;;;;;;107351;1254;62122;-78
2024/03/27 13:11:11;;;;;;;;;;;;;;;;;;107296;1253;61982;-79
2024/03/27 13:13:37;;;;;;;;;;;;;;;;;;107450;1249;59962;-79
2024/03/27 13:16:03;;;;;;;;;;;;;;;;;;107415;1248;62124;-81
2024/03/27 13:18:29;;;;;;;;;;;;;;;;;;107322;1250;62127;-79
2024/03/27 13:20:55;;;;;;;;;;;;;;;;;;107420;1251;62837;-81
2024/03/27 13:23:22;;;;;;;;;;;;;;;;;;107638;1250;60747;-80
2024/03/27 13:25:48;;;;;;;;;;;;;;;;;;107438;1253;64304;-78
2024/03/27 13:28:14;;;;;;;;;;;;;;;;;;107276;1253;62134;-81
2024/03/27 13:30:41;;;;;;;;;;;;;;;;;;107525;1254;61930;-79
2024/03/27 13:33:07;;;;;;;;;;;;;;;;;;107845;1251;61954;-81
2024/03/27 13:35:33;;;;;;;;;;;;;;;;;;107616;1253;62153;-80
2024/03/27 13:37:59;;;;;;;;;;;;;;;;;;107362;1254;62228;-81
2024/03/27 13:40:25;;;;;;;;;;;;;;;;;;107374;1250;62027;-81
2024/03/27 13:42:52;;;;;;;;;;;;;;;;;;107509;1254;63203;-78
2024/03/27 13:45:18;;;;;;;;;;;;;;;;;;106875;1248;62195;-80
2024/03/27 13:47:44;;;;;;;;;;;;;;;;;;107399;1253;61971;-78
2024/03/27 13:50:10;;;;;;;;;;;;;;;;;;107369;1263;60588;-81
2024/03/27 13:52:36;;;;;;;;;;;;;;;;;;107361;1251;62007;-78
2024/03/27 13:55:02;;;;;;;;;;;;;;;;;;107366;1254;62145;-81
2024/03/27 13:57:29;;;;;;;;;;;;;;;;;;107346;1254;61965;-78
2024/03/27 13:59:55;;;;;;;;;;;;;;;;;;107388;1254;62133;-78
2024/03/27 14:02:21;;;;;;;;;;;;;;;;;;107059;1251;60341;-81
2024/03/27 14:04:47;;;;;;;;;;;;;;;;;;106884;1252;62115;-81
2024/03/27 14:07:13;;;;;;;;;;;;;;;;;;107506;1253;62155;-79
2024/03/27 14:09:39;;;;;;;;;;;;;;;;;;107422;1250;61990;-81
2024/03/27 14:12:06;;;;;;;;;;;;;;;;;;107712;1253;62060;-81
2024/03/27 14:14:32;;;;;;;;;;;;;;;;;;107373;1254;62037;-78
2024/03/27 14:16:58;;;;;;;;;;;;;;;;;;107407;1256;62159;-79
2024/03/27 14:19:24;;;;;;;;;;;;;;;;;;107361;1254;62127;-78
2024/03/27 14:21:50;;;;;;;;;;;;;;;;;;107356;1253;62024;-81
2024/03/27 14:24:16;;;;;;;;;;;;;;;;;;107325;1254;62142;-81
2024/03/27 14:26:42;;;;;;;;;;;;;;;;;;107582;1254;61988;-81
2024/03/27 14:29:09;;;;;;;;;;;;;;;;;;107535;1253;61152;-79
2024/03/27 14:31:35;;;;;;;;;;;;;;;;;;107316;1255;62074;-80
2024/03/27 14:34:04;;;;;;;;;;;;;;;;;;107320;1250;62113;-80
2024/03/27 14:36:30;;;;;;;;;;;;;;;;;;107472;1254;62069;-79
2024/03/27 14:38:56;;;;;;;;;;;;;;;;;;107329;1251;62005;-79
2024/03/27 14:41:22;;;;;;;;;;;;;;;;;;107289;1254;61928;-78
2024/03/27 14:43:48;;;;;;;;;;;;;;;;;;106650;1256;62172;-81
2024/03/27 14:46:15;;;;;;;;;;;;;;;;;;107397;1254;62136;-81
2024/03/27 14:48:41;;;;;;;;;;;;;;;;;;107322;1251;62147;-81
2024/03/27 14:51:07;;;;;;;;;;;;;;;;;;107355;1249;62125;-81
2024/03/27 14:53:33;;;;;;;;;;;;;;;;;;107270;1253;62381;-79
2024/03/27 14:55:59;;;;;;;;;;;;;;;;;;107284;1253;62162;-79
2024/03/27 14:58:25;;;;;;;;;;;;;;;;;;107370;1253;62075;-81
2024/03/27 15:00:53;;;;;;;;;;;;;;;;;;107273;1254;61910;-79
2024/03/27 15:03:19;;;;;;;;;;;;;;;;;;107231;1250;62010;-80
2024/03/27 15:05:46;;;;;;;;;;;;;;;;;;107227;1254;62453;-79
2024/03/27 15:08:12;;;;;;;;;;;;;;;;;;107480;1251;62062;-81
2024/03/27 15:10:38;;;;;;;;;;;;;;;;;;107319;1253;62141;-79
2024/03/27 15:13:04;;;;;;;;;;;;;;;;;;107244;1253;62224;-79
2024/03/27 15:15:31;;;;;;;;;;;;;;;;;;107390;1251;62252;-81
2024/03/27 15:17:57;;;;;;;;;;;;;;;;;;107241;1253;63596;-80
2024/03/27 15:20:23;;;;;;;;;;;;;;;;;;107178;1250;62179;-79
2024/03/27 15:22:49;;;;;;;;;;;;;;;;;;107446;1253;61945;-79
2024/03/27 15:25:18;;;;;;;;;;;;;;;;;;107749;1251;62068;-79
2024/03/27 15:27:44;;;;;;;;;;;;;;;;;;107672;1250;62006;-80
2024/03/27 15:30:10;;;;;;;;;;;;;;;;;;109686;1249;59650;-79
2024/03/27 15:32:36;;;;;;;;;;;;;;;;;;109853;1250;59940;-81
2024/03/27 15:35:03;;;;;;;;;;;;;;;;;;109644;1253;59783;-81
2024/03/27 15:37:29;;;;;;;;;;;;;;;;;;109629;1251;59693;-82
2024/03/27 15:39:55;;;;;;;;;;;;;;;;;;109538;1253;61784;-78
2024/03/27 15:42:21;;;;;;;;;;;;;;;;;;109695;1251;59743;-79
2024/03/27 15:44:48;;;;;;;;;;;;;;;;;;109648;1251;59951;-79
2024/03/27 15:47:14;;;;;;;;;;;;;;;;;;109510;1250;59994;-82
2024/03/27 15:49:40;;;;;;;;;;;;;;;;;;109401;1251;59631;-81
2024/03/27 15:52:06;;;;;;;;;;;;;;;;;;107221;1251;62160;-81
2024/03/27 15:54:32;;;;;;;;;;;;;;;;;;107111;1251;62064;-79
2024/03/27 15:56:59;;;;;;;;;;;;;;;;;;109171;1250;59837;-81
2024/03/27 15:59:25;;;;;;;;;;;;;;;;;;109667;1251;59674;-79
2024/03/27 16:01:51;;;;;;;;;;;;;;;;;;109692;1251;59908;-79
2024/03/27 16:04:17;;;;;;;;;;;;;;;;;;109631;1251;61526;-81
2024/03/27 16:06:43;;;;;;;;;;;;;;;;;;107812;1251;62074;-81
2024/03/27 16:09:10;;;;;;;;;;;;;;;;;;107166;1251;62172;-80
2024/03/27 16:11:36;;;;;;;;;;;;;;;;;;107217;1251;63127;-80
2024/03/27 16:14:02;;;;;;;;;;;;;;;;;;107317;1254;61932;-79
2024/03/27 16:16:28;;;;;;;;;;;;;;;;;;106607;1254;62467;-80
2024/03/27 16:18:54;;;;;;;;;;;;;;;;;;106698;1259;62150;-78
2024/03/27 16:21:21;;;;;;;;;;;;;;;;;;106610;1250;62138;-78